Terminal Aerodrome Forecast
Issued by NWS Cleveland, OH

Home | Current Version | Previous Version | Graphics & Text | Print | Product List | Glossary On
Versions: 1 2 3 4 5 6 7 8 9 10 11 12 13 14 15 16 17 18 19 20 21 22 23 24 25 26 27 28 29 30 31 32
000
FTUS41 KCLE 280300 AAA
TAFCLE
TAF AMD
KCLE 280326Z 2803/2906 21010KT P6SM SCT008 OVC015
      TEMPO 2804/2806 5SM -SHRA OVC008
     FM280600 27010KT 6SM -SHRA SCT018 OVC035
      TEMPO 2806/2809 4SM -SHRA OVC018
     FM280900 31010KT P6SM OVC018
      TEMPO 2809/2811 6SM -SHRAPL
     FM281700 31010KT P6SM OVC022
     FM282300 31006KT P6SM BKN035=

USA.gov is the U.S. government's official web portal to all federal, state and local government web resources and services.